Time;durP1;ratioP1;P1;durP2;ratioP2;P2;SDS_P1;SDS_P2;PMS_P1;PMS_P2;Temp;Humidity;BMP_temperature;BMP_pressure;BME280_temperature;BME280_humidity;BME280_pressure;Samples;Min_cycle;Max_cycle;Signal;HPM_P1;HPM_P2
2023/10/01 00:01:41;;;;;;;15.13;6.57;;;;;;;;;;5050021;28;20021;-78
2023/10/01 00:04:07;;;;;;;14.38;6.07;;;;;;;;;;5045400;28;20023;-79
2023/10/01 00:06:36;;;;;;;13.38;6.18;;;;;;;;;;5063965;28;20120;-78
2023/10/01 00:09:05;;;;;;;13.32;5.88;;;;;;;;;;5060059;28;20046;-77
2023/10/01 00:11:32;;;;;;;15.20;6.15;;;;;;;;;;5061207;28;20045;-78
2023/10/01 00:13:59;;;;;;;15.13;6.13;;;;;;;;;;5059407;28;20092;-77
2023/10/01 00:16:25;;;;;;;14.00;5.93;;;;;;;;;;5042961;28;20027;-77
2023/10/01 00:18:51;;;;;;;15.90;6.43;;;;;;;;;;5051003;28;20048;-77
2023/10/01 00:21:17;;;;;;;14.55;5.97;;;;;;;;;;5055933;28;20406;-77
2023/10/01 00:23:43;;;;;;;15.13;6.38;;;;;;;;;;5063931;28;20027;-77
2023/10/01 00:26:10;;;;;;;14.45;6.15;;;;;;;;;;5057049;28;20502;-77
2023/10/01 00:28:35;;;;;;;15.10;5.85;;;;;;;;;;5063951;28;20033;-78
2023/10/01 00:31:02;;;;;;;15.18;6.55;;;;;;;;;;5054826;28;20028;-77
2023/10/01 00:33:27;;;;;;;17.10;6.85;;;;;;;;;;5060669;28;20160;-77
2023/10/01 00:35:56;;;;;;;12.43;6.00;;;;;;;;;;5049180;28;20024;-78
2023/10/01 00:38:21;;;;;;;15.05;6.45;;;;;;;;;;5058531;28;20075;-82
2023/10/01 00:40:50;;;;;;;15.15;6.05;;;;;;;;;;5060647;28;20025;-77
2023/10/01 00:43:15;;;;;;;14.25;5.80;;;;;;;;;;5057673;28;20461;-82
2023/10/01 00:45:41;;;;;;;13.65;6.00;;;;;;;;;;5058090;28;20032;-83
2023/10/01 00:48:11;;;;;;;15.10;5.55;;;;;;;;;;5052188;28;20028;-83
2023/10/01 00:50:38;;;;;;;13.60;5.68;;;;;;;;;;5058433;28;20017;-84
2023/10/01 00:53:04;;;;;;;13.77;6.15;;;;;;;;;;5058679;28;20040;-78
2023/10/01 00:55:31;;;;;;;16.88;6.57;;;;;;;;;;5073655;28;20278;-79
2023/10/01 00:57:56;;;;;;;14.35;6.03;;;;;;;;;;5062654;28;20025;-78
2023/10/01 01:00:25;;;;;;;18.58;6.55;;;;;;;;;;5060466;28;20070;-78
2023/10/01 01:02:58;;;;;;;13.93;6.13;;;;;;;;;;5055410;28;20024;-78
2023/10/01 01:05:34;;;;;;;15.90;6.20;;;;;;;;;;5056747;28;20032;-77
2023/10/01 01:08:28;;;;;;;15.40;6.13;;;;;;;;;;5049413;28;20037;-78
2023/10/01 01:10:53;;;;;;;16.30;6.13;;;;;;;;;;5052113;28;20468;-79
2023/10/01 01:13:20;;;;;;;13.00;5.93;;;;;;;;;;5049158;28;20037;-78
2023/10/01 01:15:46;;;;;;;15.43;6.35;;;;;;;;;;5055305;28;20076;-77
2023/10/01 01:18:20;;;;;;;13.40;6.00;;;;;;;;;;5058985;28;20024;-77
2023/10/01 01:20:46;;;;;;;21.40;6.47;;;;;;;;;;5062935;28;20088;-77
2023/10/01 01:23:19;;;;;;;12.52;6.03;;;;;;;;;;5059394;28;20031;-78
2023/10/01 01:25:45;;;;;;;15.88;6.28;;;;;;;;;;5057185;28;20031;-79
2023/10/01 01:28:19;;;;;;;15.80;6.53;;;;;;;;;;5050302;28;20297;-78
2023/10/01 01:30:47;;;;;;;15.30;6.10;;;;;;;;;;5064097;28;20042;-78
2023/10/01 01:33:20;;;;;;;14.10;6.03;;;;;;;;;;5073903;28;20029;-79
2023/10/01 01:35:50;;;;;;;12.65;5.95;;;;;;;;;;5047247;28;20082;-77
2023/10/01 01:38:16;;;;;;;14.77;6.47;;;;;;;;;;5060583;28;20453;-76
2023/10/01 01:40:42;;;;;;;14.95;6.25;;;;;;;;;;5083180;28;20095;-78
2023/10/01 01:43:23;;;;;;;15.40;6.07;;;;;;;;;;5060785;28;20021;-80
2023/10/01 01:45:59;;;;;;;14.23;5.93;;;;;;;;;;5067602;28;20079;-78
2023/10/01 01:48:31;;;;;;;14.35;6.00;;;;;;;;;;5063700;28;20036;-77
2023/10/01 01:51:00;;;;;;;15.68;6.15;;;;;;;;;;5063334;28;20028;-76
2023/10/01 01:53:36;;;;;;;17.05;6.10;;;;;;;;;;5064749;28;20037;-77
2023/10/01 01:56:08;;;;;;;12.73;5.93;;;;;;;;;;5056793;28;20478;-76
2023/10/01 01:58:33;;;;;;;15.85;5.85;;;;;;;;;;5063247;28;20078;-78
2023/10/01 02:01:08;;;;;;;14.52;6.50;;;;;;;;;;5059533;28;20083;-77
2023/10/01 02:03:37;;;;;;;17.60;6.38;;;;;;;;;;5063667;28;20020;-77
2023/10/01 02:06:07;;;;;;;14.52;6.10;;;;;;;;;;5052975;28;20025;-77
2023/10/01 02:08:49;;;;;;;15.50;6.60;;;;;;;;;;5062293;28;20056;-77
2023/10/01 02:11:18;;;;;;;15.15;6.20;;;;;;;;;;5062240;28;20190;-77
2023/10/01 02:13:46;;;;;;;15.48;6.20;;;;;;;;;;5062689;28;20103;-78
2023/10/01 02:18:56;;;;;;;13.55;6.20;;;;;;;;;;5048177;28;20037;-77
2023/10/01 02:21:47;;;;;;;15.60;6.78;;;;;;;;;;5061673;28;20039;-77
2023/10/01 02:24:37;;;;;;;14.57;6.00;;;;;;;;;;5060978;28;20020;-77
2023/10/01 02:27:04;;;;;;;18.75;6.68;;;;;;;;;;5060076;28;20032;-76
2023/10/01 02:29:32;;;;;;;16.25;6.47;;;;;;;;;;5059987;28;20025;-79
2023/10/01 02:32:04;;;;;;;14.00;6.43;;;;;;;;;;5063083;28;20084;-76
2023/10/01 02:34:31;;;;;;;14.40;6.13;;;;;;;;;;5059524;28;20062;-79
2023/10/01 02:36:58;;;;;;;15.45;6.32;;;;;;;;;;5055724;28;20056;-77
2023/10/01 02:39:30;;;;;;;13.27;6.47;;;;;;;;;;5061671;28;20021;-79
2023/10/01 02:44:31;;;;;;;12.48;5.88;;;;;;;;;;5064609;28;20243;-79
2023/10/01 02:47:09;;;;;;;16.38;6.47;;;;;;;;;;5060812;28;20407;-78
2023/10/01 02:49:40;;;;;;;15.15;6.38;;;;;;;;;;5063516;28;20031;-82
2023/10/01 02:52:05;;;;;;;12.43;5.97;;;;;;;;;;5060768;28;20048;-78
2023/10/01 02:54:30;;;;;;;14.00;6.25;;;;;;;;;;5059208;28;20036;-78
2023/10/01 02:57:23;;;;;;;16.27;6.28;;;;;;;;;;5056500;28;20056;-79
2023/10/01 03:02:38;;;;;;;13.90;6.43;;;;;;;;;;5061355;28;20059;-80
2023/10/01 03:05:14;;;;;;;15.13;6.30;;;;;;;;;;5059908;28;20051;-80
2023/10/01 03:07:40;;;;;;;15.98;6.28;;;;;;;;;;5058417;28;20069;-80
2023/10/01 03:10:15;;;;;;;15.02;5.97;;;;;;;;;;5068164;28;20523;-81
2023/10/01 03:12:42;;;;;;;14.00;6.25;;;;;;;;;;5066295;28;20344;-80
2023/10/01 03:17:51;;;;;;;15.93;6.32;;;;;;;;;;5057558;28;20028;-78
2023/10/01 03:23:01;;;;;;;16.27;6.25;;;;;;;;;;5057971;28;20266;-79
2023/10/01 03:25:32;;;;;;;15.00;5.90;;;;;;;;;;5065444;28;20017;-79
2023/10/01 03:27:58;;;;;;;12.95;6.30;;;;;;;;;;5054002;28;20218;-79
2023/10/01 03:30:31;;;;;;;15.85;6.22;;;;;;;;;;5061166;28;20313;-79
2023/10/01 03:33:08;;;;;;;13.90;6.50;;;;;;;;;;5058769;28;20047;-78
2023/10/01 03:35:35;;;;;;;14.15;6.13;;;;;;;;;;5052600;28;20032;-78
2023/10/01 03:38:09;;;;;;;13.68;5.65;;;;;;;;;;5054671;28;20149;-78
2023/10/01 03:40:57;;;;;;;17.65;6.90;;;;;;;;;;5056841;28;20082;-79
2023/10/01 03:43:31;;;;;;;14.60;5.82;;;;;;;;;;5059065;28;20032;-79
2023/10/01 03:46:06;;;;;;;13.88;6.22;;;;;;;;;;5055746;28;20052;-78
2023/10/01 03:48:57;;;;;;;15.48;6.13;;;;;;;;;;5058160;28;20048;-78
2023/10/01 03:51:28;;;;;;;14.35;5.75;;;;;;;;;;5057914;28;20521;-78
2023/10/01 03:53:58;;;;;;;14.98;6.32;;;;;;;;;;5058772;28;20037;-79
2023/10/01 03:56:24;;;;;;;15.77;6.60;;;;;;;;;;5060032;28;20028;-79
2023/10/01 03:58:49;;;;;;;14.68;6.03;;;;;;;;;;5054648;28;20063;-78
2023/10/01 04:01:26;;;;;;;12.68;6.13;;;;;;;;;;5056710;28;20078;-78
2023/10/01 04:03:51;;;;;;;14.48;6.18;;;;;;;;;;5055476;28;20225;-78
2023/10/01 04:06:16;;;;;;;14.30;5.95;;;;;;;;;;5046247;28;20096;-78
2023/10/01 04:08:44;;;;;;;14.75;6.35;;;;;;;;;;5060757;28;20047;-79
2023/10/01 04:11:11;;;;;;;14.95;6.35;;;;;;;;;;5040605;28;20565;-79
2023/10/01 04:13:40;;;;;;;13.57;6.00;;;;;;;;;;5048202;28;20036;-78
2023/10/01 04:16:14;;;;;;;13.73;6.05;;;;;;;;;;5053331;28;20641;-79
2023/10/01 04:18:42;;;;;;;13.77;6.20;;;;;;;;;;5057372;28;20032;-79
2023/10/01 04:23:33;;;;;;;17.25;6.60;;;;;;;;;;5054329;28;20029;-79
2023/10/01 04:26:04;;;;;;;14.93;5.90;;;;;;;;;;5054066;28;20031;-79
2023/10/01 04:28:31;;;;;;;14.13;6.10;;;;;;;;;;5058709;28;20099;-79
2023/10/01 04:30:57;;;;;;;17.40;6.80;;;;;;;;;;5050247;28;20220;-78
2023/10/01 04:33:25;;;;;;;15.55;6.38;;;;;;;;;;5053625;28;20086;-79
2023/10/01 04:35:51;;;;;;;15.32;6.10;;;;;;;;;;5050356;28;20025;-78
2023/10/01 04:38:20;;;;;;;12.57;5.95;;;;;;;;;;5049510;28;20024;-79
2023/10/01 04:40:48;;;;;;;18.58;6.38;;;;;;;;;;5055315;28;20025;-78
2023/10/01 04:43:19;;;;;;;17.27;6.28;;;;;;;;;;5047874;28;20534;-85
2023/10/01 04:45:47;;;;;;;15.85;6.10;;;;;;;;;;5056581;28;20036;-78
2023/10/01 04:48:17;;;;;;;12.30;5.78;;;;;;;;;;5053867;28;20048;-86
2023/10/01 04:50:44;;;;;;;15.77;6.32;;;;;;;;;;5051847;28;20033;-79
2023/10/01 04:53:13;;;;;;;14.35;6.10;;;;;;;;;;5052240;28;20078;-86
2023/10/01 04:55:42;;;;;;;15.95;6.20;;;;;;;;;;5050329;28;20032;-87
2023/10/01 04:58:15;;;;;;;14.88;5.90;;;;;;;;;;5050870;28;20069;-88
2023/10/01 05:00:46;;;;;;;13.55;6.22;;;;;;;;;;5055101;28;20048;-84
2023/10/01 05:03:15;;;;;;;14.35;6.50;;;;;;;;;;5044115;28;20060;-87
2023/10/01 05:05:42;;;;;;;13.50;6.10;;;;;;;;;;5048781;28;20024;-87
2023/10/01 05:08:12;;;;;;;15.30;6.45;;;;;;;;;;5058402;28;20083;-86
2023/10/01 05:10:57;;;;;;;14.35;6.35;;;;;;;;;;5048038;28;20027;-80
2023/10/01 05:13:23;;;;;;;13.60;6.40;;;;;;;;;;5058564;28;20044;-80
2023/10/01 05:15:58;;;;;;;12.43;5.75;;;;;;;;;;5057232;28;20422;-79
2023/10/01 05:18:27;;;;;;;15.38;6.20;;;;;;;;;;5064188;28;20396;-80
2023/10/01 05:20:58;;;;;;;13.93;6.25;;;;;;;;;;5058452;28;20394;-79
2023/10/01 05:23:25;;;;;;;14.07;6.30;;;;;;;;;;5048666;28;20029;-79
2023/10/01 05:25:50;;;;;;;16.05;6.10;;;;;;;;;;5053877;28;20115;-80
2023/10/01 05:28:31;;;;;;;16.17;6.20;;;;;;;;;;5062981;28;20020;-78
2023/10/01 05:31:08;;;;;;;14.43;6.50;;;;;;;;;;5056368;28;20055;-78
2023/10/01 05:33:35;;;;;;;13.38;5.93;;;;;;;;;;5060159;28;20063;-79
2023/10/01 05:36:05;;;;;;;14.57;6.28;;;;;;;;;;5054738;28;20027;-81
2023/10/01 05:38:34;;;;;;;16.40;6.28;;;;;;;;;;5054933;28;20032;-80
2023/10/01 05:41:15;;;;;;;14.23;5.85;;;;;;;;;;5057765;28;20081;-82
2023/10/01 05:43:50;;;;;;;12.13;5.65;;;;;;;;;;5044624;28;20039;-78
2023/10/01 05:46:18;;;;;;;15.43;6.63;;;;;;;;;;5053402;28;20529;-83
2023/10/01 05:48:49;;;;;;;14.63;5.72;;;;;;;;;;5055900;28;20044;-82
2023/10/01 05:51:18;;;;;;;14.63;5.97;;;;;;;;;;5061870;28;20033;-80
2023/10/01 05:53:44;;;;;;;14.98;6.57;;;;;;;;;;5058541;28;20028;-80
2023/10/01 05:56:11;;;;;;;14.00;5.63;;;;;;;;;;5052314;28;20067;-80
2023/10/01 05:58:38;;;;;;;13.38;6.35;;;;;;;;;;5055816;28;20046;-80
2023/10/01 06:01:13;;;;;;;12.88;6.20;;;;;;;;;;5055639;28;20057;-80
2023/10/01 06:03:49;;;;;;;16.58;6.35;;;;;;;;;;5059139;28;20033;-80
2023/10/01 06:06:24;;;;;;;15.70;6.22;;;;;;;;;;5054827;28;20425;-80
2023/10/01 06:08:58;;;;;;;16.05;6.88;;;;;;;;;;5054409;28;20372;-80
2023/10/01 06:11:38;;;;;;;14.55;6.63;;;;;;;;;;5053000;28;20040;-80
2023/10/01 06:14:07;;;;;;;14.73;6.35;;;;;;;;;;5054664;28;20035;-80
2023/10/01 06:16:37;;;;;;;15.77;6.50;;;;;;;;;;5048078;28;20036;-81
2023/10/01 06:19:07;;;;;;;16.60;6.70;;;;;;;;;;5052242;28;20029;-79
2023/10/01 06:21:33;;;;;;;13.73;6.22;;;;;;;;;;5060436;28;20021;-79
2023/10/01 06:24:04;;;;;;;15.52;6.43;;;;;;;;;;5052068;28;20070;-80
2023/10/01 06:26:36;;;;;;;19.77;6.55;;;;;;;;;;5061285;28;20332;-80
2023/10/01 06:29:07;;;;;;;15.45;6.15;;;;;;;;;;5054747;28;20032;-80
2023/10/01 06:31:48;;;;;;;16.63;6.85;;;;;;;;;;5061520;28;20036;-80
2023/10/01 06:34:21;;;;;;;17.85;6.78;;;;;;;;;;5060619;28;20020;-80
2023/10/01 06:36:51;;;;;;;23.48;7.00;;;;;;;;;;5061864;28;20024;-79
2023/10/01 06:39:19;;;;;;;16.83;6.88;;;;;;;;;;5058674;28;20052;-80
2023/10/01 06:41:46;;;;;;;20.13;6.63;;;;;;;;;;5047574;28;20029;-79
2023/10/01 06:44:14;;;;;;;19.75;7.57;;;;;;;;;;5047732;28;20028;-79
2023/10/01 06:46:40;;;;;;;19.38;7.53;;;;;;;;;;5047005;28;20041;-79
2023/10/01 06:49:08;;;;;;;18.27;7.05;;;;;;;;;;5074758;28;20025;-79
2023/10/01 06:51:46;;;;;;;20.25;6.82;;;;;;;;;;5052579;28;20020;-81
2023/10/01 06:54:13;;;;;;;20.10;7.22;;;;;;;;;;5046024;28;20028;-79
2023/10/01 06:56:44;;;;;;;19.05;7.50;;;;;;;;;;5055673;28;20025;-79
2023/10/01 07:01:56;;;;;;;15.63;6.70;;;;;;;;;;5058722;28;20029;-79
2023/10/01 07:04:23;;;;;;;17.40;6.90;;;;;;;;;;5048118;28;20021;-82
2023/10/01 07:06:53;;;;;;;17.52;7.10;;;;;;;;;;5048541;28;20044;-80
2023/10/01 07:09:32;;;;;;;20.48;7.93;;;;;;;;;;5056832;28;20080;-80
2023/10/01 07:11:59;;;;;;;20.30;8.00;;;;;;;;;;5057744;28;20029;-77
2023/10/01 07:14:43;;;;;;;17.42;7.80;;;;;;;;;;5049004;28;20028;-80
2023/10/01 07:17:09;;;;;;;18.10;7.45;;;;;;;;;;5039410;28;20044;-80
2023/10/01 07:19:36;;;;;;;17.30;7.55;;;;;;;;;;5048273;28;20028;-80
2023/10/01 07:22:06;;;;;;;17.95;7.28;;;;;;;;;;5056016;28;20035;-79
2023/10/01 07:24:33;;;;;;;16.58;7.07;;;;;;;;;;5048747;28;20037;-80
2023/10/01 07:27:06;;;;;;;16.40;7.50;;;;;;;;;;5052895;28;20101;-79
2023/10/01 07:29:35;;;;;;;17.23;7.10;;;;;;;;;;5052182;28;20060;-79
2023/10/01 07:32:08;;;;;;;19.60;7.72;;;;;;;;;;5055937;28;20081;-78
2023/10/01 07:34:39;;;;;;;15.95;6.95;;;;;;;;;;5055666;28;20067;-79
2023/10/01 07:37:05;;;;;;;16.77;7.45;;;;;;;;;;5054635;28;20028;-79
2023/10/01 07:39:37;;;;;;;17.23;7.57;;;;;;;;;;5057396;28;20082;-79
2023/10/01 07:42:04;;;;;;;17.85;7.25;;;;;;;;;;5050415;28;20083;-78
2023/10/01 07:44:35;;;;;;;16.33;7.07;;;;;;;;;;5061147;28;20032;-79
2023/10/01 07:47:02;;;;;;;17.98;7.55;;;;;;;;;;5051757;28;20115;-78
2023/10/01 07:49:46;;;;;;;17.20;7.80;;;;;;;;;;5052596;28;20017;-80
2023/10/01 07:52:12;;;;;;;19.98;7.72;;;;;;;;;;5055729;28;20082;-79
2023/10/01 07:54:39;;;;;;;14.57;7.20;;;;;;;;;;5054237;28;20036;-79
2023/10/01 07:57:08;;;;;;;17.73;7.55;;;;;;;;;;5034712;28;20032;-79
2023/10/01 07:59:34;;;;;;;16.88;7.93;;;;;;;;;;5055462;28;20054;-78
2023/10/01 08:05:08;;;;;;;18.60;7.00;;;;;;;;;;5048638;28;20040;-78
2023/10/01 08:07:39;;;;;;;16.00;7.15;;;;;;;;;;5054164;28;20532;-82
2023/10/01 08:10:13;;;;;;;17.60;7.57;;;;;;;;;;5052089;28;20141;-81
2023/10/01 08:15:31;;;;;;;15.88;7.00;;;;;;;;;;5056631;28;20028;-79
2023/10/01 08:18:19;;;;;;;16.63;6.40;;;;;;;;;;5058411;28;20316;-79
2023/10/01 08:20:57;;;;;;;18.85;6.72;;;;;;;;;;5058888;28;20089;-80
2023/10/01 08:23:23;;;;;;;16.83;6.75;;;;;;;;;;5052178;28;20037;-79
2023/10/01 08:25:51;;;;;;;16.45;7.03;;;;;;;;;;5059230;28;20040;-78
2023/10/01 08:31:01;;;;;;;16.73;6.82;;;;;;;;;;5058001;28;20111;-78
2023/10/01 08:33:32;;;;;;;16.30;6.57;;;;;;;;;;5059405;28;20217;-75
2023/10/01 08:36:12;;;;;;;13.90;6.25;;;;;;;;;;5057767;28;20535;-78
2023/10/01 08:38:38;;;;;;;15.77;6.45;;;;;;;;;;5058400;28;20143;-78
2023/10/01 08:41:05;;;;;;;15.90;6.15;;;;;;;;;;5054466;28;20269;-78
2023/10/01 08:43:35;;;;;;;14.82;5.70;;;;;;;;;;5055601;28;20078;-80
2023/10/01 08:46:16;;;;;;;12.00;5.40;;;;;;;;;;5054642;28;20036;-76
2023/10/01 08:48:43;;;;;;;16.20;5.88;;;;;;;;;;5055519;28;20067;-79
2023/10/01 08:51:11;;;;;;;15.85;5.97;;;;;;;;;;5055705;28;20100;-79
2023/10/01 08:53:42;;;;;;;16.48;6.05;;;;;;;;;;5057819;28;20095;-78
2023/10/01 08:56:13;;;;;;;14.40;6.00;;;;;;;;;;5057573;28;20042;-79
2023/10/01 08:58:48;;;;;;;14.48;6.10;;;;;;;;;;5056766;28;20043;-77
2023/10/01 09:01:15;;;;;;;15.38;6.00;;;;;;;;;;5057390;28;20028;-77
2023/10/01 09:03:48;;;;;;;12.40;5.72;;;;;;;;;;5058217;28;20060;-81
2023/10/01 09:06:24;;;;;;;15.00;5.90;;;;;;;;;;5053187;28;20028;-78
2023/10/01 09:08:54;;;;;;;13.98;6.05;;;;;;;;;;5060181;28;20353;-78
2023/10/01 09:11:32;;;;;;;13.80;5.93;;;;;;;;;;5050166;28;20036;-79
2023/10/01 09:13:58;;;;;;;12.50;5.47;;;;;;;;;;5054181;28;20036;-77
2023/10/01 09:16:33;;;;;;;13.85;5.40;;;;;;;;;;5060156;28;20035;-77
2023/10/01 09:19:30;;;;;;;14.02;5.55;;;;;;;;;;5057211;28;20029;-78
2023/10/01 09:21:48;;;;;;;12.20;5.57;;;;;;;;;;5062226;28;20209;-78
2023/10/01 09:24:41;;;;;;;13.15;5.65;;;;;;;;;;5053380;28;20495;-78
2023/10/01 09:27:18;;;;;;;14.32;5.88;;;;;;;;;;5050681;28;20155;-78
2023/10/01 09:29:45;;;;;;;14.43;5.55;;;;;;;;;;5058661;28;20054;-81
2023/10/01 09:32:13;;;;;;;14.93;5.60;;;;;;;;;;5058023;28;20426;-79
2023/10/01 09:34:53;;;;;;;14.85;5.70;;;;;;;;;;5055770;28;20052;-77
2023/10/01 09:37:34;;;;;;;13.45;5.35;;;;;;;;;;5038852;28;20020;-79
2023/10/01 09:40:05;;;;;;;13.75;5.20;;;;;;;;;;5053383;28;20546;-75
2023/10/01 09:42:55;;;;;;;14.88;5.95;;;;;;;;;;5060771;28;20024;-77
2023/10/01 09:45:26;;;;;;;14.35;5.53;;;;;;;;;;5051511;28;20096;-78
2023/10/01 09:48:23;;;;;;;16.17;5.82;;;;;;;;;;5053394;28;20056;-78
2023/10/01 09:50:51;;;;;;;11.50;5.30;;;;;;;;;;5056863;28;20028;-77
2023/10/01 09:53:24;;;;;;;13.02;5.03;;;;;;;;;;5052620;28;20020;-77
2023/10/01 09:55:55;;;;;;;12.65;5.30;;;;;;;;;;5057720;28;20017;-77
2023/10/01 09:58:25;;;;;;;14.20;5.55;;;;;;;;;;5052795;28;20476;-76
2023/10/01 10:00:55;;;;;;;12.45;5.13;;;;;;;;;;5059529;28;20095;-75
2023/10/01 10:03:21;;;;;;;13.50;5.38;;;;;;;;;;5062807;28;20059;-76
2023/10/01 10:05:51;;;;;;;14.10;4.82;;;;;;;;;;5053717;28;20041;-75
2023/10/01 10:08:20;;;;;;;11.70;4.72;;;;;;;;;;5058270;28;20094;-74
2023/10/01 10:10:52;;;;;;;12.65;5.00;;;;;;;;;;5059588;28;20025;-76
2023/10/01 10:16:30;;;;;;;13.07;5.15;;;;;;;;;;5057015;28;20490;-74
2023/10/01 10:19:05;;;;;;;15.60;5.55;;;;;;;;;;5060144;28;20028;-75
2023/10/01 10:24:29;;;;;;;15.30;6.22;;;;;;;;;;5053213;28;20044;-75
2023/10/01 10:27:33;;;;;;;13.60;5.53;;;;;;;;;;5055109;28;20032;-74
2023/10/01 10:29:56;;;;;;;13.90;5.63;;;;;;;;;;5056952;28;20048;-74
2023/10/01 10:32:30;;;;;;;14.85;6.07;;;;;;;;;;5057340;28;20028;-76
2023/10/01 10:35:04;;;;;;;15.18;6.03;;;;;;;;;;5055352;28;20362;-74
2023/10/01 10:37:43;;;;;;;13.57;5.53;;;;;;;;;;5059505;28;20028;-75
2023/10/01 10:42:35;;;;;;;12.45;5.10;;;;;;;;;;5055603;28;20024;-78
2023/10/01 10:45:20;;;;;;;13.05;5.25;;;;;;;;;;5057297;28;20102;-74
2023/10/01 10:48:04;;;;;;;14.02;5.10;;;;;;;;;;5067685;28;20153;-74
2023/10/01 10:50:49;;;;;;;11.93;5.57;;;;;;;;;;5063259;28;20022;-74
2023/10/01 10:53:16;;;;;;;12.55;5.65;;;;;;;;;;5050111;28;20024;-74
2023/10/01 10:56:08;;;;;;;14.35;5.82;;;;;;;;;;5061157;28;20024;-76
2023/10/01 10:58:44;;;;;;;15.30;5.95;;;;;;;;;;5057944;28;20032;-75
2023/10/01 11:01:15;;;;;;;17.20;6.45;;;;;;;;;;5051827;28;20069;-73
2023/10/01 11:03:42;;;;;;;12.77;5.68;;;;;;;;;;5071265;28;20101;-76
2023/10/01 11:06:21;;;;;;;14.05;5.93;;;;;;;;;;5053617;28;20027;-74
2023/10/01 11:08:52;;;;;;;12.95;5.90;;;;;;;;;;5052844;28;20024;-75
2023/10/01 11:11:28;;;;;;;13.68;6.43;;;;;;;;;;5056889;28;20051;-76
2023/10/01 11:14:03;;;;;;;14.70;6.25;;;;;;;;;;5056614;28;20252;-75
2023/10/01 11:16:38;;;;;;;15.43;6.22;;;;;;;;;;5054971;28;20035;-75
2023/10/01 11:19:14;;;;;;;13.32;5.90;;;;;;;;;;5059633;28;20418;-76
2023/10/01 11:21:44;;;;;;;15.18;6.38;;;;;;;;;;5058374;28;20324;-75
2023/10/01 11:24:12;;;;;;;13.88;6.45;;;;;;;;;;5057021;28;20028;-74
2023/10/01 11:27:11;;;;;;;14.48;6.30;;;;;;;;;;5069528;28;20666;-75
2023/10/01 11:29:39;;;;;;;13.55;5.70;;;;;;;;;;5060704;28;20041;-75
2023/10/01 11:32:06;;;;;;;14.77;5.93;;;;;;;;;;5058918;28;20180;-76
2023/10/01 11:34:45;;;;;;;16.42;6.57;;;;;;;;;;5060174;28;20397;-75
2023/10/01 11:37:16;;;;;;;12.57;6.30;;;;;;;;;;5056608;28;20028;-76
2023/10/01 11:39:49;;;;;;;14.05;6.18;;;;;;;;;;5068208;28;20051;-75
2023/10/01 11:42:26;;;;;;;16.00;6.65;;;;;;;;;;5051349;28;20027;-75
2023/10/01 11:44:52;;;;;;;15.85;6.63;;;;;;;;;;5037171;28;20029;-74
2023/10/01 11:47:31;;;;;;;17.08;6.28;;;;;;;;;;5052732;28;20105;-76
2023/10/01 11:50:07;;;;;;;14.88;6.47;;;;;;;;;;5054986;28;20048;-75
2023/10/01 11:52:33;;;;;;;13.45;6.05;;;;;;;;;;5050775;28;20231;-75
2023/10/01 11:54:59;;;;;;;15.00;6.28;;;;;;;;;;5054264;28;20040;-75
2023/10/01 11:57:25;;;;;;;15.90;6.45;;;;;;;;;;5051581;28;20047;-76
2023/10/01 11:59:56;;;;;;;12.88;6.10;;;;;;;;;;5045980;28;20283;-75
2023/10/01 12:02:33;;;;;;;16.08;6.70;;;;;;;;;;5055103;28;20025;-76
2023/10/01 12:05:07;;;;;;;12.57;6.28;;;;;;;;;;5063224;28;20093;-76
2023/10/01 12:07:43;;;;;;;14.85;6.78;;;;;;;;;;5053942;28;20040;-76
2023/10/01 12:10:31;;;;;;;12.90;6.00;;;;;;;;;;5047634;28;20518;-77
2023/10/01 12:12:55;;;;;;;12.05;5.90;;;;;;;;;;5048051;28;20032;-77
2023/10/01 12:15:35;;;;;;;13.15;6.05;;;;;;;;;;5041735;28;20032;-79
2023/10/01 12:18:08;;;;;;;14.38;6.40;;;;;;;;;;5045232;28;20043;-77
2023/10/01 12:20:47;;;;;;;17.08;6.40;;;;;;;;;;5055336;28;20048;-79
2023/10/01 12:23:19;;;;;;;13.63;6.30;;;;;;;;;;5040951;28;20024;-79
2023/10/01 12:28:29;;;;;;;14.82;6.28;;;;;;;;;;5041158;28;20043;-78
2023/10/01 12:31:09;;;;;;;14.32;6.45;;;;;;;;;;5045593;28;20409;-78
2023/10/01 12:33:40;;;;;;;15.43;6.88;;;;;;;;;;5048705;28;20032;-78
2023/10/01 12:36:31;;;;;;;14.85;6.65;;;;;;;;;;5047936;28;20024;-77
2023/10/01 12:44:34;;;;;;;13.82;6.55;;;;;;;;;;5048907;28;20114;-77
2023/10/01 12:47:02;;;;;;;15.07;6.88;;;;;;;;;;5051904;28;20040;-77
2023/10/01 12:49:28;;;;;;;14.60;6.10;;;;;;;;;;5054016;28;20024;-77
2023/10/01 12:51:54;;;;;;;15.98;6.82;;;;;;;;;;5044570;28;20024;-75
2023/10/01 12:54:25;;;;;;;15.20;6.57;;;;;;;;;;5056763;28;20100;-81
2023/10/01 12:57:12;;;;;;;15.43;6.45;;;;;;;;;;5055088;28;20028;-75
2023/10/01 12:59:40;;;;;;;13.52;6.32;;;;;;;;;;5052973;28;20016;-81
2023/10/01 13:02:42;;;;;;;16.35;6.72;;;;;;;;;;5047391;28;20078;-75
2023/10/01 13:05:20;;;;;;;12.88;5.90;;;;;;;;;;5034457;28;20082;-81
2023/10/01 13:07:48;;;;;;;14.70;6.28;;;;;;;;;;5047234;28;20713;-76
2023/10/01 13:10:16;;;;;;;14.50;6.47;;;;;;;;;;5041765;28;20048;-84
2023/10/01 13:12:57;;;;;;;13.60;6.43;;;;;;;;;;5064126;28;20658;-87
2023/10/01 13:15:40;;;;;;;13.63;5.95;;;;;;;;;;5061262;28;20756;-82
2023/10/01 13:18:16;;;;;;;14.85;6.28;;;;;;;;;;5044558;28;20140;-83
2023/10/01 13:23:24;;;;;;;13.35;6.15;;;;;;;;;;5061103;28;20093;-81
2023/10/01 13:26:15;;;;;;;14.20;6.40;;;;;;;;;;5055172;28;20089;-75
2023/10/01 13:28:49;;;;;;;15.25;6.45;;;;;;;;;;5047703;28;20032;-81
2023/10/01 13:34:12;;;;;;;13.75;6.10;;;;;;;;;;5067181;28;20576;-78
2023/10/01 13:37:11;;;;;;;14.57;6.27;;;;;;;;;;5053859;28;20166;-76
2023/10/01 14:09:52;;;;;;;14.48;6.03;;;;;;;;;;5061538;28;20089;-76
2023/10/01 14:15:04;;;;;;;13.27;6.20;;;;;;;;;;5052140;28;20040;-75
2023/10/01 14:17:30;;;;;;;12.73;6.00;;;;;;;;;;5056465;28;20023;-76
2023/10/01 14:19:55;;;;;;;14.25;6.20;;;;;;;;;;5046071;28;20112;-76
2023/10/01 14:22:24;;;;;;;13.65;6.28;;;;;;;;;;5046203;28;20506;-78
2023/10/01 14:24:50;;;;;;;15.25;6.55;;;;;;;;;;5048409;28;20029;-76
2023/10/01 14:27:24;;;;;;;13.40;6.18;;;;;;;;;;5046621;28;20115;-74
2023/10/01 14:32:38;;;;;;;14.23;6.38;;;;;;;;;;5037318;28;20078;-75
2023/10/01 14:35:16;;;;;;;15.82;6.18;;;;;;;;;;5055871;28;20044;-72
2023/10/01 14:37:54;;;;;;;15.30;6.55;;;;;;;;;;5050807;28;20329;-73
2023/10/01 14:40:21;;;;;;;13.93;6.20;;;;;;;;;;5051795;28;20088;-72
2023/10/01 14:42:46;;;;;;;14.73;6.45;;;;;;;;;;5045557;28;20032;-77
2023/10/01 14:45:13;;;;;;;15.60;6.72;;;;;;;;;;5056725;28;20031;-79
2023/10/01 14:47:42;;;;;;;14.05;6.45;;;;;;;;;;5072664;28;20052;-74
2023/10/01 14:50:14;;;;;;;14.02;6.38;;;;;;;;;;5060896;28;20313;-73
2023/10/01 14:52:41;;;;;;;14.85;6.15;;;;;;;;;;5073577;28;20031;-74
2023/10/01 14:55:07;;;;;;;13.60;7.13;;;;;;;;;;5049853;28;20083;-74
2023/10/01 14:57:34;;;;;;;15.95;6.53;;;;;;;;;;5064101;28;20551;-75
2023/10/01 15:00:00;;;;;;;14.30;6.38;;;;;;;;;;5059479;28;20012;-73
2023/10/01 15:02:26;;;;;;;14.82;6.05;;;;;;;;;;5066393;28;20028;-74
2023/10/01 15:04:51;;;;;;;13.65;6.00;;;;;;;;;;5071762;28;20020;-74
2023/10/01 15:07:17;;;;;;;14.55;6.53;;;;;;;;;;5057098;28;20016;-74
2023/10/01 15:09:42;;;;;;;13.32;6.45;;;;;;;;;;5059617;28;20025;-75
2023/10/01 15:12:09;;;;;;;14.32;6.70;;;;;;;;;;5052904;28;20025;-75
2023/10/01 15:14:36;;;;;;;15.00;6.22;;;;;;;;;;5059801;28;20038;-74
2023/10/01 15:17:04;;;;;;;15.25;6.13;;;;;;;;;;5056458;28;20035;-74
2023/10/01 15:19:30;;;;;;;13.93;6.05;;;;;;;;;;5068282;28;20107;-75
2023/10/01 15:22:08;;;;;;;13.88;6.00;;;;;;;;;;5053691;28;20033;-74
2023/10/01 15:24:35;;;;;;;13.48;6.55;;;;;;;;;;5060102;28;20148;-76
2023/10/01 15:27:04;;;;;;;14.75;6.18;;;;;;;;;;5064917;28;20031;-74
2023/10/01 15:29:33;;;;;;;13.48;6.20;;;;;;;;;;5048373;28;20086;-75
2023/10/01 15:31:59;;;;;;;14.90;6.28;;;;;;;;;;5052435;28;20031;-74
2023/10/01 15:34:27;;;;;;;14.02;6.40;;;;;;;;;;5064966;28;20402;-75
2023/10/01 15:36:52;;;;;;;15.60;7.05;;;;;;;;;;5059011;28;20221;-74
2023/10/01 15:44:50;;;;;;;12.10;6.28;;;;;;;;;;5060764;28;20040;-75
2023/10/01 15:50:18;;;;;;;19.75;6.78;;;;;;;;;;5055400;28;20067;-75
2023/10/01 15:52:48;;;;;;;12.95;5.85;;;;;;;;;;5053269;28;20568;-74
2023/10/01 15:55:15;;;;;;;14.23;6.20;;;;;;;;;;5056759;28;20028;-75
2023/10/01 15:57:42;;;;;;;15.23;6.65;;;;;;;;;;5059374;28;20024;-74
2023/10/01 16:00:23;;;;;;;13.73;6.20;;;;;;;;;;5045707;28;20706;-74
2023/10/01 16:02:49;;;;;;;14.45;6.78;;;;;;;;;;5052758;28;20028;-75
2023/10/01 16:05:15;;;;;;;13.70;6.10;;;;;;;;;;5049213;28;20032;-74
2023/10/01 16:07:44;;;;;;;14.10;6.50;;;;;;;;;;5055058;28;20050;-74
2023/10/01 16:10:14;;;;;;;13.60;6.85;;;;;;;;;;5049367;28;20092;-74
2023/10/01 16:12:39;;;;;;;14.10;6.78;;;;;;;;;;5054903;28;20376;-75
2023/10/01 16:15:07;;;;;;;14.93;6.90;;;;;;;;;;5045852;28;20556;-74
2023/10/01 16:17:32;;;;;;;15.43;6.32;;;;;;;;;;5044667;28;20413;-74
2023/10/01 16:19:59;;;;;;;12.38;6.25;;;;;;;;;;5035299;28;20027;-75
2023/10/01 16:22:29;;;;;;;13.43;5.90;;;;;;;;;;5045096;28;20107;-74
2023/10/01 16:24:56;;;;;;;16.00;5.95;;;;;;;;;;5060590;28;20046;-75
2023/10/01 16:27:26;;;;;;;13.63;5.90;;;;;;;;;;5057730;28;20032;-74
2023/10/01 16:30:16;;;;;;;13.88;6.15;;;;;;;;;;5048079;28;20115;-75